createdAt,value
2019-05-02T00:03:04.519Z,76.37
2019-05-02T00:07:59.692Z,77.72
2019-05-02T00:12:54.505Z,78.64
2019-05-02T00:17:49.158Z,78.75
2019-05-02T00:22:48.002Z,78.30
2019-05-02T00:27:40.126Z,79.72
2019-05-02T00:32:34.721Z,81.13
2019-05-02T00:37:29.305Z,81.77
2019-05-02T00:42:24.173Z,81.99
2019-05-02T00:47:26.639Z,83.00
2019-05-02T00:52:21.213Z,84.77
2019-05-02T00:57:20.026Z,84.13
2019-05-02T01:02:14.915Z,84.73
2019-05-02T01:07:11.212Z,84.87
2019-05-02T01:12:08.484Z,84.99
2019-05-02T01:17:02.406Z,85.51
2019-05-02T01:21:56.989Z,85.71
2019-05-02T01:26:53.392Z,85.71
2019-05-02T01:31:49.939Z,85.98
2019-05-02T01:37:05.635Z,86.08
2019-05-02T01:42:04.022Z,86.38
2019-05-02T01:46:58.763Z,86.66
2019-05-02T01:51:52.957Z,87.07
2019-05-02T01:56:47.530Z,87.07
2019-05-02T02:01:42.197Z,86.58
2019-05-02T02:06:38.734Z,87.11
2019-05-02T02:11:33.922Z,87.21
2019-05-02T02:16:29.460Z,87.19
2019-05-02T02:21:27.638Z,88.89
2019-05-02T02:26:23.658Z,89.04
2019-05-02T02:31:21.509Z,88.74
2019-05-02T02:36:16.087Z,88.65
2019-05-02T02:41:13.090Z,89.53
2019-05-02T02:46:06.989Z,89.66
2019-05-02T02:51:01.598Z,90.48
2019-05-02T02:56:01.654Z,90.39
2019-05-02T03:00:52.495Z,90.13
2019-05-02T03:05:47.138Z,89.95
2019-05-02T03:10:45.107Z,90.88
2019-05-02T03:15:39.812Z,90.58
2019-05-02T03:20:39.901Z,91.64
2019-05-02T03:25:49.356Z,91.48
2019-05-02T03:30:36.304Z,90.06
2019-05-02T03:35:39.607Z,90.57
2019-05-02T03:40:19.992Z,90.87
2019-05-02T03:45:15.011Z,91.03
2019-05-02T03:50:10.098Z,91.69
2019-05-02T03:55:06.786Z,92.54
2019-05-02T04:00:01.497Z,92.75
2019-05-02T04:05:00.639Z,92.38
2019-05-02T04:09:54.417Z,92.09
2019-05-02T04:14:55.489Z,90.65
2019-05-02T04:19:45.678Z,90.05
2019-05-02T04:24:41.051Z,90.11
2019-05-02T04:29:37.182Z,90.08
2019-05-02T04:34:31.823Z,89.19
2019-05-02T04:39:28.651Z,85.18
2019-05-02T04:44:29.743Z,81.54
2019-05-02T04:49:28.272Z,77.16
2019-05-02T04:54:21.815Z,73.11
2019-05-02T04:59:18.115Z,69.70
2019-05-02T05:04:08.302Z,67.23
2019-05-02T05:09:10.433Z,63.79
2019-05-02T05:14:00.981Z,59.22
2019-05-02T05:18:55.601Z,57.48
2019-05-02T05:23:59.651Z,55.91
2019-05-02T05:28:51.952Z,54.59
2019-05-02T05:33:47.899Z,52.51
2019-05-02T05:38:42.878Z,51.15
2019-05-02T05:43:38.503Z,50.37
2019-05-02T05:48:37.252Z,49.83
2019-05-02T05:53:30.191Z,48.53
2019-05-02T05:58:25.455Z,48.11
2019-05-02T06:03:20.190Z,48.10
2019-05-02T06:08:18.454Z,47.88
2019-05-02T06:13:12.907Z,47.55
2019-05-02T06:18:07.583Z,46.60
2019-05-02T06:23:02.151Z,47.82
2019-05-02T06:28:00.207Z,48.53
2019-05-02T06:32:54.921Z,48.76
2019-05-02T06:37:50.531Z,49.37
2019-05-02T06:42:46.074Z,49.74
2019-05-02T06:47:41.549Z,50.67
2019-05-02T06:52:37.518Z,51.42
2019-05-02T06:57:32.137Z,51.73
2019-05-02T07:02:28.303Z,52.44
2019-05-02T07:07:24.958Z,52.04
2019-05-02T07:12:20.488Z,51.02
2019-05-02T07:17:38.316Z,51.84
2019-05-02T07:22:33.040Z,51.86
2019-05-02T07:27:33.079Z,52.13
2019-05-02T07:32:26.701Z,52.67
2019-05-02T07:37:21.034Z,51.57
2019-05-02T07:42:15.935Z,51.59
2019-05-02T07:47:10.543Z,50.92
2019-05-02T07:52:05.329Z,49.94
2019-05-02T07:57:02.340Z,51.21
2019-05-02T08:01:56.455Z,51.20
2019-05-02T08:06:51.144Z,51.11
2019-05-02T08:11:46.083Z,51.43
2019-05-02T08:16:40.679Z,50.57
2019-05-02T08:21:35.268Z,50.84
2019-05-02T08:26:31.515Z,49.78
2019-05-02T08:31:26.101Z,49.44
2019-05-02T08:36:20.714Z,48.40
2019-05-02T08:41:19.879Z,48.32
2019-05-02T08:46:14.563Z,47.27
2019-05-02T08:51:08.501Z,45.14
2019-05-02T08:56:03.173Z,45.43
2019-05-02T09:00:57.775Z,44.69
2019-05-02T09:06:04.645Z,45.45
2019-05-02T09:10:48.870Z,44.74
2019-05-02T09:15:51.253Z,46.05
2019-05-02T09:20:54.913Z,45.35
2019-05-02T09:25:51.958Z,44.99
2019-05-02T09:30:49.120Z,43.36
2019-05-02T09:35:45.849Z,43.68
2019-05-02T09:40:47.182Z,44.28
2019-05-02T09:45:43.945Z,43.27
2019-05-02T09:50:38.607Z,42.38
2019-05-02T09:55:33.591Z,41.75
2019-05-02T10:00:46.748Z,43.72
2019-05-02T10:05:43.119Z,44.19
2019-05-02T10:10:44.258Z,43.80
2019-05-02T10:15:34.555Z,43.31
2019-05-02T10:20:34.165Z,43.92
2019-05-02T10:25:32.840Z,42.63
2019-05-02T10:30:24.822Z,40.92
2019-05-02T10:35:22.898Z,41.65
2019-05-02T10:40:17.879Z,40.34
2019-05-02T10:45:16.759Z,41.18
2019-05-02T10:50:12.491Z,40.64
2019-05-02T10:55:14.120Z,39.79
2019-05-02T11:00:23.404Z,38.17
2019-05-02T11:05:26.542Z,37.58
2019-05-02T11:10:21.832Z,34.65
2019-05-02T11:15:34.911Z,34.45
2019-05-02T11:20:31.899Z,33.78
2019-05-02T11:25:26.683Z,33.98
2019-05-02T11:30:26.388Z,33.86
2019-05-02T11:35:17.880Z,33.33
2019-05-02T11:40:15.623Z,34.51
2019-05-02T11:45:12.148Z,32.04
2019-05-02T11:50:08.760Z,32.47
2019-05-02T11:55:04.763Z,33.33
2019-05-02T12:00:04.134Z,33.32
2019-05-02T12:04:56.044Z,31.94
2019-05-02T12:09:56.692Z,32.63
2019-05-02T12:14:47.329Z,31.01
2019-05-02T12:19:42.582Z,29.18
2019-05-02T12:24:40.890Z,29.12
2019-05-02T12:29:34.298Z,32.48
2019-05-02T12:34:28.975Z,30.17
2019-05-02T12:39:23.669Z,30.17
2019-05-02T12:44:18.659Z,31.79
2019-05-02T12:49:24.397Z,31.42
2019-05-02T12:54:09.875Z,31.88
2019-05-02T12:59:05.087Z,32.98
2019-05-02T13:04:02.776Z,32.61
2019-05-02T13:08:57.770Z,30.96
2019-05-02T13:13:53.409Z,31.43
2019-05-02T13:18:57.202Z,30.66
2019-05-02T13:24:07.552Z,29.86
2019-05-02T13:28:59.269Z,29.11
2019-05-02T13:33:59.495Z,30.06
2019-05-02T13:38:54.440Z,30.80
2019-05-02T13:43:52.115Z,32.59
2019-05-02T13:48:47.304Z,34.20
2019-05-02T13:53:43.526Z,40.27
2019-05-02T13:58:38.231Z,43.93
2019-05-02T14:03:33.065Z,48.58
2019-05-02T14:08:36.709Z,58.68
2019-05-02T14:13:28.915Z,62.26
2019-05-02T14:18:29.122Z,65.08
2019-05-02T14:23:19.873Z,67.77
2019-05-02T14:28:14.556Z,67.75
2019-05-02T14:33:11.759Z,68.05
2019-05-02T14:38:13.569Z,66.43
2019-05-02T14:43:08.404Z,63.44
2019-05-02T14:48:17.899Z,63.93
2019-05-02T14:53:02.613Z,63.46
2019-05-02T14:58:02.147Z,63.54
2019-05-02T15:02:54.079Z,61.55
2019-05-02T15:07:48.786Z,60.80
2019-05-02T15:12:43.446Z,58.99
2019-05-02T15:17:38.116Z,59.50
2019-05-02T15:22:37.325Z,57.41
2019-05-02T15:27:40.093Z,57.70
2019-05-02T15:32:46.410Z,57.32
2019-05-02T15:37:41.647Z,57.73
2019-05-02T15:42:36.174Z,55.40
2019-05-02T15:47:32.026Z,54.38
2019-05-02T15:52:28.542Z,53.80
2019-05-02T15:57:24.889Z,53.18
2019-05-02T16:02:26.487Z,52.52
2019-05-02T16:07:22.367Z,52.93
2019-05-02T16:12:16.770Z,53.63
2019-05-02T16:17:12.442Z,55.74
2019-05-02T16:22:17.805Z,55.67
2019-05-02T16:27:16.410Z,56.27
2019-05-02T16:32:16.957Z,55.28
2019-05-02T16:37:16.554Z,54.85
2019-05-02T16:42:08.569Z,54.76
2019-05-02T16:47:03.725Z,55.21
2019-05-02T16:52:04.906Z,56.20
2019-05-02T16:56:58.380Z,57.20
2019-05-02T17:01:54.394Z,57.99
2019-05-02T17:06:48.253Z,58.58
2019-05-02T17:11:47.055Z,59.33
2019-05-02T17:16:42.122Z,60.78
2019-05-02T17:21:52.364Z,61.84
2019-05-02T17:26:33.184Z,62.61
2019-05-02T17:31:27.965Z,63.64
2019-05-02T17:36:28.654Z,64.46
2019-05-02T17:41:19.167Z,64.88
2019-05-02T17:46:18.349Z,65.26
2019-05-02T17:51:18.100Z,65.86
2019-05-02T17:56:20.272Z,66.13
2019-05-02T18:01:10.861Z,66.73
2019-05-02T18:06:07.498Z,67.15
2019-05-02T18:11:02.939Z,67.23
2019-05-02T18:15:57.700Z,67.42
2019-05-02T18:20:52.887Z,67.99
2019-05-02T18:25:48.011Z,68.55
2019-05-02T18:30:42.622Z,68.97
2019-05-02T18:35:41.956Z,69.00
2019-05-02T18:40:33.607Z,68.89
2019-05-02T18:45:28.828Z,69.23
2019-05-02T18:50:44.499Z,69.51
2019-05-02T18:55:32.620Z,69.74
2019-05-02T19:00:35.531Z,69.93
2019-05-02T19:05:26.521Z,70.04
2019-05-02T19:10:21.130Z,70.94
2019-05-02T19:15:16.849Z,75.26
2019-05-02T19:20:34.265Z,78.92
2019-05-02T19:25:29.041Z,79.58
2019-05-02T19:30:29.926Z,83.67
2019-05-02T19:35:24.634Z,84.32
2019-05-02T19:40:28.207Z,86.29
2019-05-02T19:45:21.811Z,87.61
2019-05-02T19:50:39.268Z,88.07
2019-05-02T19:55:29.814Z,88.39
2019-05-02T20:00:24.587Z,86.00
2019-05-02T20:05:24.080Z,85.52
2019-05-02T20:10:17.873Z,86.82
2019-05-02T20:15:17.059Z,87.58
2019-05-02T20:20:54.096Z,87.81
2019-05-02T20:25:48.784Z,87.78
2019-05-02T20:30:43.539Z,88.55
2019-05-02T20:35:38.263Z,87.91
2019-05-02T20:40:35.214Z,88.77
2019-05-02T20:45:32.129Z,88.14
2019-05-02T20:50:26.566Z,88.55
2019-05-02T20:55:21.390Z,86.58
2019-05-02T21:00:26.283Z,86.85
2019-05-02T21:05:32.126Z,86.90
2019-05-02T21:10:28.672Z,86.54
2019-05-02T21:15:23.343Z,85.75
2019-05-02T21:20:17.930Z,86.16
2019-05-02T21:25:13.142Z,85.99
2019-05-02T21:30:12.351Z,86.27
2019-05-02T21:35:08.883Z,85.87
2019-05-02T21:40:04.212Z,85.73
2019-05-02T21:44:58.803Z,86.33
2019-05-02T21:49:55.019Z,86.66
2019-05-02T21:55:03.112Z,85.16
2019-05-02T21:59:57.691Z,84.95
2019-05-02T22:04:52.888Z,85.68
2019-05-02T22:09:47.499Z,85.55
2019-05-02T22:14:42.259Z,85.67
2019-05-02T22:19:36.866Z,84.90
2019-05-02T22:24:31.538Z,85.03
2019-05-02T22:29:26.116Z,85.78
2019-05-02T22:34:22.019Z,86.05
2019-05-02T22:39:34.640Z,87.18
2019-05-02T22:44:29.361Z,87.27
2019-05-02T22:49:23.984Z,87.47
2019-05-02T22:54:27.719Z,88.62
2019-05-02T22:59:14.902Z,89.35
2019-05-02T23:04:09.470Z,89.71
2019-05-02T23:09:06.177Z,89.83
2019-05-02T23:14:01.784Z,89.72
2019-05-02T23:18:56.630Z,89.60
2019-05-02T23:23:52.355Z,88.92
2019-05-02T23:28:51.840Z,88.83
2019-05-02T23:33:58.217Z,88.30
2019-05-02T23:38:52.805Z,88.22
2019-05-02T23:43:47.482Z,86.52
2019-05-02T23:48:42.057Z,87.14
2019-05-02T23:53:36.651Z,85.44
2019-05-02T23:58:32.005Z,86.02
